sensor_id;sensor_type;location;lat;lon;timestamp;pressure;altitude;pressure_sealevel;temperature;humidity
4745;BME280;2386;42.138;24.746;2024-02-21T02:34:48;100302.03;;;8.17;100.00
4745;BME280;2386;42.138;24.746;2024-02-21T02:37:13;100309.56;;;8.22;100.00
4745;BME280;2386;42.138;24.746;2024-02-21T02:39:38;100304.97;;;8.16;100.00
4745;BME280;2386;42.138;24.746;2024-02-21T02:42:04;100306.22;;;8.20;100.00
4745;BME280;2386;42.138;24.746;2024-02-21T02:44:29;100306.00;;;8.15;100.00
4745;BME280;2386;42.138;24.746;2024-02-21T02:46:55;100305.28;;;8.00;100.00
4745;BME280;2386;42.138;24.746;2024-02-21T02:49:20;100303.91;;;7.82;100.00
4745;BME280;2386;42.138;24.746;2024-02-21T02:51:46;100300.81;;;7.85;100.00
4745;BME280;2386;42.138;24.746;2024-02-21T02:54:11;100308.97;;;7.92;100.00
4745;BME280;2386;42.138;24.746;2024-02-21T02:56:37;100302.34;;;7.95;100.00
4745;BME280;2386;42.138;24.746;2024-02-21T02:59:02;100305.22;;;7.93;100.00
4745;BME280;2386;42.138;24.746;2024-02-21T03:01:28;100306.31;;;7.99;100.00
4745;BME280;2386;42.138;24.746;2024-02-21T03:03:54;100301.25;;;7.89;100.00
4745;BME280;2386;42.138;24.746;2024-02-21T03:06:19;100306.72;;;7.96;100.00
4745;BME280;2386;42.138;24.746;2024-02-21T03:08:45;100303.97;;;7.89;100.00
4745;BME280;2386;42.138;24.746;2024-02-21T03:11:10;100301.19;;;8.10;100.00
4745;BME280;2386;42.138;24.746;2024-02-21T03:13:36;100302.19;;;8.03;100.00
4745;BME280;2386;42.138;24.746;2024-02-21T03:16:01;100310.50;;;8.01;100.00
4745;BME280;2386;42.138;24.746;2024-02-21T03:18:27;100302.78;;;7.98;100.00
4745;BME280;2386;42.138;24.746;2024-02-21T03:20:52;100302.56;;;8.00;100.00
4745;BME280;2386;42.138;24.746;2024-02-21T03:23:17;100297.31;;;7.91;100.00
4745;BME280;2386;42.138;24.746;2024-02-21T03:25:43;100294.88;;;7.97;100.00
4745;BME280;2386;42.138;24.746;2024-02-21T03:28:08;100297.31;;;7.91;100.00
4745;BME280;2386;42.138;24.746;2024-02-21T03:30:33;100294.09;;;8.03;100.00
4745;BME280;2386;42.138;24.746;2024-02-21T03:32:59;100290.84;;;8.14;100.00
4745;BME280;2386;42.138;24.746;2024-02-21T03:35:25;100296.25;;;8.14;100.00
4745;BME280;2386;42.138;24.746;2024-02-21T03:37:52;100287.16;;;8.28;100.00
4745;BME280;2386;42.138;24.746;2024-02-21T03:40:17;100291.44;;;8.44;100.00
4745;BME280;2386;42.138;24.746;2024-02-21T03:42:43;100287.72;;;8.51;100.00
4745;BME280;2386;42.138;24.746;2024-02-21T03:45:09;100294.41;;;8.62;100.00
4745;BME280;2386;42.138;24.746;2024-02-21T03:47:34;100287.38;;;8.68;100.00
4745;BME280;2386;42.138;24.746;2024-02-21T03:50:00;100293.00;;;8.73;100.00
4745;BME280;2386;42.138;24.746;2024-02-21T03:52:25;100290.31;;;8.73;100.00
4745;BME280;2386;42.138;24.746;2024-02-21T03:54:50;100285.91;;;8.65;100.00
4745;BME280;2386;42.138;24.746;2024-02-21T03:57:16;100289.41;;;8.59;100.00
4745;BME280;2386;42.138;24.746;2024-02-21T03:59:42;100295.22;;;8.56;100.00
4745;BME280;2386;42.138;24.746;2024-02-21T04:02:08;100297.72;;;8.57;100.00
4745;BME280;2386;42.138;24.746;2024-02-21T04:04:34;100292.56;;;8.63;100.00
4745;BME280;2386;42.138;24.746;2024-02-21T04:07:02;100289.63;;;8.57;100.00
4745;BME280;2386;42.138;24.746;2024-02-21T04:09:32;100288.19;;;8.62;100.00
4745;BME280;2386;42.138;24.746;2024-02-21T04:11:58;100286.94;;;8.64;100.00
4745;BME280;2386;42.138;24.746;2024-02-21T04:14:23;100297.25;;;8.47;100.00
4745;BME280;2386;42.138;24.746;2024-02-21T04:16:49;100298.56;;;8.58;100.00
4745;BME280;2386;42.138;24.746;2024-02-21T04:19:14;100294.03;;;8.65;100.00
4745;BME280;2386;42.138;24.746;2024-02-21T04:21:39;100295.09;;;8.71;100.00
4745;BME280;2386;42.138;24.746;2024-02-21T04:24:05;100298.59;;;8.65;100.00
4745;BME280;2386;42.138;24.746;2024-02-21T04:26:30;100302.75;;;8.61;100.00
4745;BME280;2386;42.138;24.746;2024-02-21T04:28:56;100300.22;;;8.59;100.00
4745;BME280;2386;42.138;24.746;2024-02-21T04:31:22;100303.41;;;8.69;100.00
4745;BME280;2386;42.138;24.746;2024-02-21T04:33:47;100308.22;;;8.74;100.00
4745;BME280;2386;42.138;24.746;2024-02-21T04:36:12;100310.69;;;8.69;100.00
4745;BME280;2386;42.138;24.746;2024-02-21T04:38:38;100310.25;;;8.65;100.00
4745;BME280;2386;42.138;24.746;2024-02-21T04:41:04;100319.84;;;8.68;100.00
4745;BME280;2386;42.138;24.746;2024-02-21T04:43:31;100322.97;;;8.71;100.00
4745;BME280;2386;42.138;24.746;2024-02-21T04:45:56;100326.47;;;8.65;100.00
4745;BME280;2386;42.138;24.746;2024-02-21T04:48:21;100322.00;;;8.85;100.00
4745;BME280;2386;42.138;24.746;2024-02-21T04:50:47;100332.81;;;8.85;100.00
4745;BME280;2386;42.138;24.746;2024-02-21T04:53:12;100337.81;;;8.88;100.00
4745;BME280;2386;42.138;24.746;2024-02-21T04:55:38;100334.81;;;8.70;100.00
4745;BME280;2386;42.138;24.746;2024-02-21T04:58:03;100326.03;;;8.62;100.00
4745;BME280;2386;42.138;24.746;2024-02-21T05:00:29;100337.28;;;8.65;100.00
4745;BME280;2386;42.138;24.746;2024-02-21T05:02:54;100336.84;;;8.62;100.00
4745;BME280;2386;42.138;24.746;2024-02-21T05:05:20;100338.53;;;8.63;100.00
4745;BME280;2386;42.138;24.746;2024-02-21T05:07:45;100335.81;;;8.63;100.00
4745;BME280;2386;42.138;24.746;2024-02-21T05:10:10;100336.38;;;8.51;100.00
4745;BME280;2386;42.138;24.746;2024-02-21T05:12:36;100338.44;;;8.49;100.00
4745;BME280;2386;42.138;24.746;2024-02-21T05:15:02;100340.56;;;8.54;100.00
4745;BME280;2386;42.138;24.746;2024-02-21T05:17:28;100343.25;;;8.54;100.00
4745;BME280;2386;42.138;24.746;2024-02-21T05:19:53;100352.66;;;8.58;100.00
4745;BME280;2386;42.138;24.746;2024-02-21T05:22:19;100356.09;;;8.45;100.00
4745;BME280;2386;42.138;24.746;2024-02-21T05:24:44;100356.69;;;8.41;100.00
4745;BME280;2386;42.138;24.746;2024-02-21T05:27:09;100352.91;;;8.35;100.00
4745;BME280;2386;42.138;24.746;2024-02-21T05:29:35;100354.75;;;8.63;100.00
4745;BME280;2386;42.138;24.746;2024-02-21T05:32:00;100346.56;;;8.49;100.00
4745;BME280;2386;42.138;24.746;2024-02-21T05:34:26;100355.88;;;8.40;100.00
4745;BME280;2386;42.138;24.746;2024-02-21T05:36:51;100354.00;;;8.41;100.00
4745;BME280;2386;42.138;24.746;2024-02-21T05:39:18;100351.25;;;8.34;100.00
4745;BME280;2386;42.138;24.746;2024-02-21T05:41:43;100360.09;;;8.49;100.00
4745;BME280;2386;42.138;24.746;2024-02-21T05:44:09;100370.09;;;8.55;100.00
4745;BME280;2386;42.138;24.746;2024-02-21T05:46:35;100371.66;;;8.37;100.00
4745;BME280;2386;42.138;24.746;2024-02-21T05:49:00;100371.97;;;8.27;100.00
4745;BME280;2386;42.138;24.746;2024-02-21T05:51:26;100369.91;;;8.29;100.00
4745;BME280;2386;42.138;24.746;2024-02-21T05:53:51;100370.66;;;8.16;100.00
4745;BME280;2386;42.138;24.746;2024-02-21T05:56:17;100372.03;;;8.34;100.00
4745;BME280;2386;42.138;24.746;2024-02-21T05:58:45;100373.69;;;8.63;100.00
4745;BME280;2386;42.138;24.746;2024-02-21T06:01:12;100376.47;;;8.76;100.00
4745;BME280;2386;42.138;24.746;2024-02-21T06:03:37;100369.78;;;8.72;100.00
4745;BME280;2386;42.138;24.746;2024-02-21T06:06:03;100382.66;;;8.70;100.00
4745;BME280;2386;42.138;24.746;2024-02-21T06:08:30;100367.50;;;8.75;100.00
4745;BME280;2386;42.138;24.746;2024-02-21T06:10:55;100380.25;;;8.88;100.00
4745;BME280;2386;42.138;24.746;2024-02-21T06:13:21;100385.69;;;8.88;100.00
4745;BME280;2386;42.138;24.746;2024-02-21T06:15:47;100385.47;;;8.96;100.00
4745;BME280;2386;42.138;24.746;2024-02-21T06:18:13;100386.53;;;9.02;100.00
4745;BME280;2386;42.138;24.746;2024-02-21T06:20:38;100391.72;;;8.90;100.00
4745;BME280;2386;42.138;24.746;2024-02-21T06:23:06;100394.06;;;9.06;100.00
4745;BME280;2386;42.138;24.746;2024-02-21T06:25:31;100397.00;;;9.11;100.00
4745;BME280;2386;42.138;24.746;2024-02-21T06:27:56;100395.91;;;8.99;100.00
4745;BME280;2386;42.138;24.746;2024-02-21T06:30:23;100401.72;;;8.96;100.00
4745;BME280;2386;42.138;24.746;2024-02-21T06:32:48;100398.16;;;8.96;100.00
4745;BME280;2386;42.138;24.746;2024-02-21T06:35:14;100403.06;;;9.20;100.00
4745;BME280;2386;42.138;24.746;2024-02-21T06:37:39;100397.22;;;9.16;100.00
4745;BME280;2386;42.138;24.746;2024-02-21T06:40:05;100399.75;;;9.25;100.00
4745;BME280;2386;42.138;24.746;2024-02-21T06:42:31;100400.78;;;9.23;100.00
4745;BME280;2386;42.138;24.746;2024-02-21T06:44:56;100401.25;;;9.34;100.00
4745;BME280;2386;42.138;24.746;2024-02-21T06:47:22;100398.09;;;9.23;100.00
4745;BME280;2386;42.138;24.746;2024-02-21T06:49:51;100399.59;;;9.39;100.00
4745;BME280;2386;42.138;24.746;2024-02-21T06:52:20;100400.22;;;9.41;100.00
4745;BME280;2386;42.138;24.746;2024-02-21T06:54:46;100410.88;;;9.49;100.00
4745;BME280;2386;42.138;24.746;2024-02-21T06:57:12;100410.66;;;9.51;100.00
4745;BME280;2386;42.138;24.746;2024-02-21T06:59:38;100403.19;;;9.66;100.00
4745;BME280;2386;42.138;24.746;2024-02-21T07:02:04;100410.09;;;9.88;100.00
4745;BME280;2386;42.138;24.746;2024-02-21T07:04:29;100413.44;;;9.91;100.00
4745;BME280;2386;42.138;24.746;2024-02-21T07:06:55;100406.34;;;9.89;100.00
4745;BME280;2386;42.138;24.746;2024-02-21T07:09:20;100408.22;;;9.96;100.00
4745;BME280;2386;42.138;24.746;2024-02-21T07:11:45;100411.38;;;10.19;100.00
4745;BME280;2386;42.138;24.746;2024-02-21T07:14:11;100400.50;;;9.99;100.00
4745;BME280;2386;42.138;24.746;2024-02-21T07:16:36;100404.72;;;10.22;100.00
4745;BME280;2386;42.138;24.746;2024-02-21T07:19:02;100405.56;;;10.29;100.00
4745;BME280;2386;42.138;24.746;2024-02-21T07:21:28;100407.22;;;10.23;97.94
4745;BME280;2386;42.138;24.746;2024-02-21T07:23:53;100404.69;;;10.41;98.03
4745;BME280;2386;42.138;24.746;2024-02-21T07:26:19;100409.25;;;10.47;97.85
4745;BME280;2386;42.138;24.746;2024-02-21T07:28:45;100401.75;;;10.49;95.98
4745;BME280;2386;42.138;24.746;2024-02-21T07:31:11;100406.19;;;10.37;97.61
4745;BME280;2386;42.138;24.746;2024-02-21T07:33:36;100402.59;;;10.43;97.96
4745;BME280;2386;42.138;24.746;2024-02-21T07:36:07;100410.50;;;10.51;97.39
4745;BME280;2386;42.138;24.746;2024-02-21T07:38:33;100410.91;;;10.62;96.62
4745;BME280;2386;42.138;24.746;2024-02-21T07:40:59;100402.56;;;10.70;96.20
4745;BME280;2386;42.138;24.746;2024-02-21T07:43:24;100409.66;;;10.71;93.70
4745;BME280;2386;42.138;24.746;2024-02-21T07:45:52;100407.16;;;10.56;96.32
4745;BME280;2386;42.138;24.746;2024-02-21T07:48:18;100406.94;;;10.64;95.87
4745;BME280;2386;42.138;24.746;2024-02-21T07:50:44;100412.19;;;10.52;96.89
4745;BME280;2386;42.138;24.746;2024-02-21T07:53:10;100410.09;;;10.54;96.21
4745;BME280;2386;42.138;24.746;2024-02-21T07:55:35;100413.59;;;10.75;95.16
4745;BME280;2386;42.138;24.746;2024-02-21T07:58:00;100412.56;;;10.69;93.11
4745;BME280;2386;42.138;24.746;2024-02-21T08:00:26;100423.41;;;10.82;90.63
4745;BME280;2386;42.138;24.746;2024-02-21T08:02:51;100410.88;;;10.81;91.76
4745;BME280;2386;42.138;24.746;2024-02-21T08:05:17;100414.56;;;11.00;91.66
4745;BME280;2386;42.138;24.746;2024-02-21T08:07:44;100412.09;;;10.92;92.19
4745;BME280;2386;42.138;24.746;2024-02-21T08:10:09;100412.28;;;10.97;91.68
4745;BME280;2386;42.138;24.746;2024-02-21T08:12:35;100404.56;;;10.94;92.89
4745;BME280;2386;42.138;24.746;2024-02-21T08:15:02;100409.13;;;11.07;92.83
4745;BME280;2386;42.138;24.746;2024-02-21T08:17:29;100415.63;;;10.99;91.33
4745;BME280;2386;42.138;24.746;2024-02-21T08:19:55;100410.78;;;11.08;91.84
4745;BME280;2386;42.138;24.746;2024-02-21T08:22:20;100409.53;;;11.10;90.29
4745;BME280;2386;42.138;24.746;2024-02-21T08:24:46;100410.31;;;11.17;89.88
4745;BME280;2386;42.138;24.746;2024-02-21T08:27:11;100407.38;;;11.19;89.59
4745;BME280;2386;42.138;24.746;2024-02-21T08:29:36;100413.97;;;11.43;88.87
4745;BME280;2386;42.138;24.746;2024-02-21T08:32:02;100416.88;;;11.48;83.24
4745;BME280;2386;42.138;24.746;2024-02-21T08:34:27;100420.63;;;11.47;81.29
4745;BME280;2386;42.138;24.746;2024-02-21T08:36:55;100420.06;;;11.32;81.53
4745;BME280;2386;42.138;24.746;2024-02-21T08:39:21;100418.78;;;11.41;81.87
4745;BME280;2386;42.138;24.746;2024-02-21T08:41:46;100422.31;;;11.41;81.25
4745;BME280;2386;42.138;24.746;2024-02-21T08:44:11;100416.88;;;11.48;82.08
4745;BME280;2386;42.138;24.746;2024-02-21T08:46:37;100418.16;;;11.39;82.15
4745;BME280;2386;42.138;24.746;2024-02-21T08:49:05;100415.19;;;11.47;82.07
4745;BME280;2386;42.138;24.746;2024-02-21T08:51:31;100417.47;;;11.50;82.35
4745;BME280;2386;42.138;24.746;2024-02-21T08:53:56;100415.53;;;11.64;81.75
4745;BME280;2386;42.138;24.746;2024-02-21T08:56:22;100415.03;;;11.73;81.33
4745;BME280;2386;42.138;24.746;2024-02-21T08:58:47;100418.28;;;11.89;81.35
4745;BME280;2386;42.138;24.746;2024-02-21T09:01:12;100421.75;;;11.77;81.21
4745;BME280;2386;42.138;24.746;2024-02-21T09:03:39;100417.09;;;11.84;82.47
4745;BME280;2386;42.138;24.746;2024-02-21T09:06:05;100428.03;;;12.03;80.94
4745;BME280;2386;42.138;24.746;2024-02-21T09:08:31;100424.31;;;12.22;80.48
4745;BME280;2386;42.138;24.746;2024-02-21T09:10:56;100426.00;;;11.92;81.60
4745;BME280;2386;42.138;24.746;2024-02-21T09:13:22;100425.41;;;11.90;81.86
4745;BME280;2386;42.138;24.746;2024-02-21T09:15:49;100421.63;;;11.91;82.63
4745;BME280;2386;42.138;24.746;2024-02-21T09:18:15;100420.88;;;11.83;83.13
4745;BME280;2386;42.138;24.746;2024-02-21T09:20:41;100418.75;;;11.86;81.48
4745;BME280;2386;42.138;24.746;2024-02-21T09:23:06;100420.44;;;11.87;81.73
4745;BME280;2386;42.138;24.746;2024-02-21T09:25:32;100410.03;;;11.70;81.97
4745;BME280;2386;42.138;24.746;2024-02-21T09:27:57;100417.72;;;11.87;83.08
4745;BME280;2386;42.138;24.746;2024-02-21T09:30:23;100414.00;;;12.06;82.00
4745;BME280;2386;42.138;24.746;2024-02-21T09:32:49;100410.59;;;12.10;82.72
4745;BME280;2386;42.138;24.746;2024-02-21T09:35:14;100403.00;;;12.19;81.56
4745;BME280;2386;42.138;24.746;2024-02-21T09:37:40;100403.91;;;12.13;79.49
4745;BME280;2386;42.138;24.746;2024-02-21T09:40:06;100400.41;;;12.31;79.38
4745;BME280;2386;42.138;24.746;2024-02-21T09:42:38;100400.56;;;12.36;77.28
4745;BME280;2386;42.138;24.746;2024-02-21T09:45:30;100395.53;;;12.58;76.68
4745;BME280;2386;42.138;24.746;2024-02-21T09:50:43;100397.72;;;12.86;72.73
4745;BME280;2386;42.138;24.746;2024-02-21T09:53:12;100393.44;;;12.96;74.53
4745;BME280;2386;42.138;24.746;2024-02-21T09:55:38;100395.25;;;13.02;70.52
4745;BME280;2386;42.138;24.746;2024-02-21T09:58:07;100395.72;;;13.18;70.15
4745;BME280;2386;42.138;24.746;2024-02-21T10:00:33;100387.84;;;13.28;68.95
4745;BME280;2386;42.138;24.746;2024-02-21T10:02:59;100394.75;;;13.42;68.01
4745;BME280;2386;42.138;24.746;2024-02-21T10:05:24;100386.63;;;13.24;66.58
4745;BME280;2386;42.138;24.746;2024-02-21T10:07:51;100381.25;;;13.17;66.87
4745;BME280;2386;42.138;24.746;2024-02-21T10:10:16;100374.22;;;13.09;66.94
4745;BME280;2386;42.138;24.746;2024-02-21T10:12:50;100372.31;;;13.10;64.80
4745;BME280;2386;42.138;24.746;2024-02-21T10:15:20;100369.00;;;13.08;64.12
4745;BME280;2386;42.138;24.746;2024-02-21T10:17:45;100366.13;;;13.03;64.39
4745;BME280;2386;42.138;24.746;2024-02-21T10:20:11;100364.38;;;12.90;64.20
4745;BME280;2386;42.138;24.746;2024-02-21T10:22:38;100360.75;;;12.96;64.10
4745;BME280;2386;42.138;24.746;2024-02-21T10:25:11;100356.19;;;13.08;63.58
4745;BME280;2386;42.138;24.746;2024-02-21T10:27:38;100346.06;;;13.15;63.71
4745;BME280;2386;42.138;24.746;2024-02-21T10:30:06;100340.53;;;13.22;63.33
4745;BME280;2386;42.138;24.746;2024-02-21T10:32:32;100334.91;;;13.35;59.90
4745;BME280;2386;42.138;24.746;2024-02-21T10:35:04;100333.47;;;13.33;58.55
4745;BME280;2386;42.138;24.746;2024-02-21T10:37:30;100329.47;;;13.47;58.84
4745;BME280;2386;42.138;24.746;2024-02-21T10:39:57;100329.47;;;13.35;58.12
4745;BME280;2386;42.138;24.746;2024-02-21T10:42:22;100317.97;;;13.33;57.82
4745;BME280;2386;42.138;24.746;2024-02-21T10:44:51;100324.03;;;13.47;57.24
4745;BME280;2386;42.138;24.746;2024-02-21T10:47:17;100320.13;;;13.55;57.96
4745;BME280;2386;42.138;24.746;2024-02-21T10:49:49;100308.53;;;13.59;55.77
4745;BME280;2386;42.138;24.746;2024-02-21T10:55:27;100302.63;;;13.62;56.79
4745;BME280;2386;42.138;24.746;2024-02-21T10:57:57;100293.63;;;13.62;57.35
4745;BME280;2386;42.138;24.746;2024-02-21T11:00:23;100287.53;;;13.48;57.08
4745;BME280;2386;42.138;24.746;2024-02-21T11:02:56;100293.50;;;13.68;56.71
4745;BME280;2386;42.138;24.746;2024-02-21T11:05:23;100283.66;;;13.67;56.09
4745;BME280;2386;42.138;24.746;2024-02-21T11:07:49;100284.63;;;13.73;55.06
4745;BME280;2386;42.138;24.746;2024-02-21T11:10:25;100276.47;;;13.85;56.17
4745;BME280;2386;42.138;24.746;2024-02-21T11:13:07;100278.50;;;14.01;55.05
4745;BME280;2386;42.138;24.746;2024-02-21T11:15:33;100267.81;;;14.11;54.57
4745;BME280;2386;42.138;24.746;2024-02-21T11:17:58;100268.72;;;14.17;53.95
4745;BME280;2386;42.138;24.746;2024-02-21T11:20:37;100270.78;;;14.09;54.73
4745;BME280;2386;42.138;24.746;2024-02-21T11:23:02;100262.78;;;14.20;53.85
4745;BME280;2386;42.138;24.746;2024-02-21T11:25:28;100262.66;;;14.26;53.07
4745;BME280;2386;42.138;24.746;2024-02-21T11:28:01;100268.59;;;14.35;54.48
4745;BME280;2386;42.138;24.746;2024-02-21T11:30:30;100258.75;;;14.34;52.64
4745;BME280;2386;42.138;24.746;2024-02-21T11:33:02;100257.56;;;14.30;51.68
4745;BME280;2386;42.138;24.746;2024-02-21T11:35:33;100250.66;;;14.39;52.16
4745;BME280;2386;42.138;24.746;2024-02-21T11:40:35;100254.00;;;14.41;50.71
4745;BME280;2386;42.138;24.746;2024-02-21T11:43:02;100250.09;;;14.49;51.38
4745;BME280;2386;42.138;24.746;2024-02-21T11:45:27;100244.50;;;14.55;50.74
4745;BME280;2386;42.138;24.746;2024-02-21T11:47:53;100247.69;;;14.64;50.38
4745;BME280;2386;42.138;24.746;2024-02-21T11:50:18;100244.91;;;14.75;49.96
4745;BME280;2386;42.138;24.746;2024-02-21T11:52:44;100242.63;;;14.84;49.81
4745;BME280;2386;42.138;24.746;2024-02-21T11:55:10;100235.03;;;15.03;60.36
4745;BME280;2386;42.138;24.746;2024-02-21T11:57:37;100231.09;;;15.10;50.17
4745;BME280;2386;42.138;24.746;2024-02-21T12:00:15;100228.44;;;15.16;48.78
4745;BME280;2386;42.138;24.746;2024-02-21T12:02:42;100230.31;;;14.98;48.59
4745;BME280;2386;42.138;24.746;2024-02-21T12:05:08;100217.38;;;14.94;48.84
4745;BME280;2386;42.138;24.746;2024-02-21T12:07:33;100229.38;;;14.93;49.24
4745;BME280;2386;42.138;24.746;2024-02-21T12:10:00;100227.34;;;15.00;48.65
4745;BME280;2386;42.138;24.746;2024-02-21T12:12:25;100224.44;;;15.06;48.31
4745;BME280;2386;42.138;24.746;2024-02-21T12:14:55;100218.84;;;15.13;48.24
4745;BME280;2386;42.138;24.746;2024-02-21T12:17:23;100208.41;;;15.27;47.86
4745;BME280;2386;42.138;24.746;2024-02-21T12:19:50;100206.94;;;15.36;48.05
4745;BME280;2386;42.138;24.746;2024-02-21T12:22:18;100198.66;;;15.48;47.31
4745;BME280;2386;42.138;24.746;2024-02-21T12:24:44;100204.38;;;15.46;46.68
4745;BME280;2386;42.138;24.746;2024-02-21T12:27:13;100196.25;;;15.51;47.67
4745;BME280;2386;42.138;24.746;2024-02-21T12:29:39;100190.88;;;15.56;46.08
4745;BME280;2386;42.138;24.746;2024-02-21T12:32:05;100186.56;;;15.60;46.20
4745;BME280;2386;42.138;24.746;2024-02-21T12:34:30;100185.31;;;15.68;46.64
4745;BME280;2386;42.138;24.746;2024-02-21T12:36:58;100177.81;;;15.58;46.38
4745;BME280;2386;42.138;24.746;2024-02-21T12:39:24;100182.25;;;15.64;45.70
4745;BME280;2386;42.138;24.746;2024-02-21T12:41:52;100180.00;;;15.61;44.82
4745;BME280;2386;42.138;24.746;2024-02-21T12:44:19;100169.00;;;15.56;45.18
4745;BME280;2386;42.138;24.746;2024-02-21T12:46:44;100172.59;;;15.57;45.25
4745;BME280;2386;42.138;24.746;2024-02-21T12:49:10;100164.28;;;15.52;45.45
4745;BME280;2386;42.138;24.746;2024-02-21T12:51:36;100164.34;;;15.40;45.84
4745;BME280;2386;42.138;24.746;2024-02-21T12:54:01;100163.28;;;15.24;45.21
4745;BME280;2386;42.138;24.746;2024-02-21T12:56:30;100161.88;;;15.38;43.74
4745;BME280;2386;42.138;24.746;2024-02-21T12:58:56;100156.06;;;15.35;44.30
4745;BME280;2386;42.138;24.746;2024-02-21T13:01:22;100146.13;;;15.29;44.11
4745;BME280;2386;42.138;24.746;2024-02-21T13:03:47;100145.22;;;15.23;44.40
4745;BME280;2386;42.138;24.746;2024-02-21T13:06:13;100148.28;;;15.27;44.75
4745;BME280;2386;42.138;24.746;2024-02-21T13:08:39;100139.50;;;15.25;45.88
4745;BME280;2386;42.138;24.746;2024-02-21T13:11:05;100137.28;;;15.22;45.11
4745;BME280;2386;42.138;24.746;2024-02-21T13:13:31;100129.06;;;15.22;44.44
4745;BME280;2386;42.138;24.746;2024-02-21T13:15:59;100129.16;;;15.27;45.59
4745;BME280;2386;42.138;24.746;2024-02-21T13:18:25;100128.00;;;15.23;44.11
4745;BME280;2386;42.138;24.746;2024-02-21T13:20:51;100123.53;;;15.17;43.97
4745;BME280;2386;42.138;24.746;2024-02-21T13:23:16;100124.78;;;15.26;44.25
4745;BME280;2386;42.138;24.746;2024-02-21T13:25:42;100116.66;;;15.31;44.84
4745;BME280;2386;42.138;24.746;2024-02-21T13:28:09;100122.69;;;15.33;45.75
4745;BME280;2386;42.138;24.746;2024-02-21T13:30:35;100112.44;;;15.23;43.95
4745;BME280;2386;42.138;24.746;2024-02-21T13:33:00;100116.56;;;15.26;45.67
4745;BME280;2386;42.138;24.746;2024-02-21T13:35:25;100120.53;;;15.35;45.21
4745;BME280;2386;42.138;24.746;2024-02-21T13:37:51;100114.75;;;15.31;44.88
4745;BME280;2386;42.138;24.746;2024-02-21T13:40:16;100110.19;;;15.37;45.25
4745;BME280;2386;42.138;24.746;2024-02-21T13:42:42;100112.00;;;15.31;44.24
4745;BME280;2386;42.138;24.746;2024-02-21T13:45:08;100105.97;;;15.29;43.52
4745;BME280;2386;42.138;24.746;2024-02-21T13:47:34;100109.84;;;15.33;44.52
4745;BME280;2386;42.138;24.746;2024-02-21T13:50:01;100104.06;;;15.30;45.82
4745;BME280;2386;42.138;24.746;2024-02-21T13:52:29;100109.19;;;15.26;43.60
4745;BME280;2386;42.138;24.746;2024-02-21T13:54:55;100104.56;;;15.27;43.12
4745;BME280;2386;42.138;24.746;2024-02-21T13:57:20;100109.28;;;15.15;43.67
4745;BME280;2386;42.138;24.746;2024-02-21T13:59:46;100104.72;;;15.20;45.11
4745;BME280;2386;42.138;24.746;2024-02-21T14:02:11;100107.03;;;15.11;42.83
4745;BME280;2386;42.138;24.746;2024-02-21T14:04:37;100103.56;;;15.16;42.90
4745;BME280;2386;42.138;24.746;2024-02-21T14:07:03;100087.34;;;15.09;43.19
4745;BME280;2386;42.138;24.746;2024-02-21T14:09:28;100089.66;;;15.18;43.02
4745;BME280;2386;42.138;24.746;2024-02-21T14:11:58;100092.97;;;15.20;44.41
4745;BME280;2386;42.138;24.746;2024-02-21T14:14:25;100086.19;;;15.22;44.79
4745;BME280;2386;42.138;24.746;2024-02-21T14:16:50;100076.00;;;15.18;45.46
4745;BME280;2386;42.138;24.746;2024-02-21T14:19:16;100084.75;;;15.20;46.63
4745;BME280;2386;42.138;24.746;2024-02-21T14:21:42;100089.06;;;15.16;43.12
4745;BME280;2386;42.138;24.746;2024-02-21T14:24:07;100079.63;;;15.06;45.30
4745;BME280;2386;42.138;24.746;2024-02-21T14:26:33;100086.00;;;14.95;46.23
4745;BME280;2386;42.138;24.746;2024-02-21T14:28:58;100086.69;;;15.02;46.55
4745;BME280;2386;42.138;24.746;2024-02-21T14:31:24;100090.66;;;14.95;47.53
4745;BME280;2386;42.138;24.746;2024-02-21T14:33:50;100079.72;;;14.95;47.39
4745;BME280;2386;42.138;24.746;2024-02-21T14:36:16;100087.59;;;14.91;47.50
4745;BME280;2386;42.138;24.746;2024-02-21T14:38:41;100086.41;;;14.87;47.05
4745;BME280;2386;42.138;24.746;2024-02-21T14:41:08;100087.34;;;14.76;47.32
4745;BME280;2386;42.138;24.746;2024-02-21T14:43:34;100087.34;;;14.76;47.49
4745;BME280;2386;42.138;24.746;2024-02-21T14:46:00;100084.53;;;14.71;47.69
4745;BME280;2386;42.138;24.746;2024-02-21T14:48:27;100085.50;;;14.65;47.94
4745;BME280;2386;42.138;24.746;2024-02-21T14:50:54;100088.81;;;14.67;48.58
4745;BME280;2386;42.138;24.746;2024-02-21T14:53:19;100085.84;;;14.68;48.52
4745;BME280;2386;42.138;24.746;2024-02-21T14:55:45;100085.50;;;14.65;47.87
4745;BME280;2386;42.138;24.746;2024-02-21T14:58:10;100094.63;;;14.70;47.24
4745;BME280;2386;42.138;24.746;2024-02-21T15:00:36;100093.13;;;14.63;47.93
4745;BME280;2386;42.138;24.746;2024-02-21T15:03:01;100091.63;;;14.55;48.54
4745;BME280;2386;42.138;24.746;2024-02-21T15:05:27;100083.00;;;14.46;48.28
4745;BME280;2386;42.138;24.746;2024-02-21T15:07:55;100088.63;;;14.57;48.81
4745;BME280;2386;42.138;24.746;2024-02-21T15:10:23;100091.78;;;14.65;48.20
4745;BME280;2386;42.138;24.746;2024-02-21T15:12:49;100094.88;;;14.69;47.85
4745;BME280;2386;42.138;24.746;2024-02-21T15:15:15;100094.47;;;14.77;47.62
4745;BME280;2386;42.138;24.746;2024-02-21T15:17:42;100094.97;;;14.74;47.77
4745;BME280;2386;42.138;24.746;2024-02-21T15:20:07;100089.16;;;14.70;47.69
4745;BME280;2386;42.138;24.746;2024-02-21T15:22:34;100099.25;;;14.70;48.02
4745;BME280;2386;42.138;24.746;2024-02-21T15:25:00;100095.59;;;14.64;48.10
4745;BME280;2386;42.138;24.746;2024-02-21T15:27:26;100094.94;;;14.57;48.05
4745;BME280;2386;42.138;24.746;2024-02-21T15:29:53;100091.94;;;14.59;48.25
4745;BME280;2386;42.138;24.746;2024-02-21T15:32:19;100093.50;;;14.55;48.58
4745;BME280;2386;42.138;24.746;2024-02-21T15:34:45;100097.91;;;14.56;48.24
4745;BME280;2386;42.138;24.746;2024-02-21T15:37:11;100090.78;;;14.55;48.31